Time;durP1;ratioP1;P1;durP2;ratioP2;P2;SDS_P1;SDS_P2;PMS_P1;PMS_P2;Temp;Humidity;BMP_temperature;BMP_pressure;BME280_temperature;BME280_humidity;BME280_pressure;Samples;Min_cycle;Max_cycle;Signal;HPM_P1;HPM_P2
2021/12/04 00:00:28;;;;;;;0.10;0.10;;;4.00;99.90;;;;;;5143286;28;20170;-81
2021/12/04 00:02:55;;;;;;;0.10;0.10;;;4.00;99.90;;;;;;5142984;28;20044;-81
2021/12/04 00:05:23;;;;;;;0.17;0.17;;;4.10;99.90;;;;;;5126352;28;20044;-82
2021/12/04 00:07:49;;;;;;;0.10;0.10;;;4.80;99.90;;;;;;5143295;28;20040;-82
2021/12/04 00:10:18;;;;;;;0.45;0.45;;;4.10;99.90;;;;;;5126318;28;20044;-81
2021/12/04 00:12:45;;;;;;;0.10;0.10;;;4.00;99.90;;;;;;5143231;28;20036;-82
2021/12/04 00:15:12;;;;;;;0.10;0.10;;;4.00;99.90;;;;;;5126364;28;20469;-81
2021/12/04 00:17:39;;;;;;;0.10;0.10;;;4.00;99.90;;;;;;5143299;28;20047;-82
2021/12/04 00:20:08;;;;;;;0.15;0.15;;;4.90;99.90;;;;;;5143050;28;20511;-83
2021/12/04 00:22:35;;;;;;;0.10;0.10;;;4.00;99.90;;;;;;5128567;28;20040;-82
2021/12/04 00:25:06;;;;;;;0.13;0.13;;;4.10;99.90;;;;;;5147315;28;20036;-82
2021/12/04 00:27:33;;;;;;;0.10;0.10;;;4.00;99.90;;;;;;5147391;28;20054;-81
2021/12/04 00:30:00;;;;;;;0.10;0.10;;;4.00;99.90;;;;;;5129766;28;20044;-83
2021/12/04 00:32:33;;;;;;;0.10;0.10;;;4.60;99.90;;;;;;5147246;28;20040;-81
2021/12/04 00:43:17;;;;;;;0.10;0.10;;;4.00;99.90;;;;;;5164732;27;20101;-81
2021/12/04 00:49:24;;;;;;;0.10;0.10;;;4.00;99.90;;;;;;5164441;27;20501;-82
2021/12/04 00:51:32;;;;;;;0.10;0.10;;;4.20;99.90;;;;;;5124594;28;20044;-82
2021/12/04 00:53:58;;;;;;;0.10;0.10;;;4.50;99.90;;;;;;5146863;28;20035;-82
2021/12/04 00:56:25;;;;;;;0.10;0.10;;;4.10;99.90;;;;;;5147078;28;20535;-82
2021/12/04 00:58:52;;;;;;;0.10;0.10;;;4.00;99.90;;;;;;5112826;28;20043;-82
2021/12/04 01:01:19;;;;;;;0.20;0.20;;;4.00;99.90;;;;;;5146624;28;20091;-82
2021/12/04 01:03:46;;;;;;;0.10;0.10;;;4.00;99.90;;;;;;5146956;28;20105;-83
2021/12/04 01:06:13;;;;;;;0.10;0.10;;;4.00;99.90;;;;;;5146507;28;20079;-83
2021/12/04 01:08:40;;;;;;;0.10;0.10;;;4.00;99.90;;;;;;5113168;28;20049;-82
2021/12/04 01:11:07;;;;;;;0.15;0.15;;;4.00;99.90;;;;;;5146089;28;20435;-81
2021/12/04 01:13:34;;;;;;;0.10;0.10;;;4.00;99.90;;;;;;5129381;28;20040;-82
2021/12/04 01:16:01;;;;;;;0.10;0.10;;;4.00;99.90;;;;;;5112330;28;20046;-82
2021/12/04 01:18:28;;;;;;;0.10;0.10;;;4.00;99.90;;;;;;5112511;28;20040;-83
2021/12/04 01:20:55;;;;;;;0.10;0.10;;;4.00;99.90;;;;;;5145877;28;20047;-81
2021/12/04 01:23:22;;;;;;;0.10;0.10;;;4.10;99.90;;;;;;5146726;28;20040;-83
2021/12/04 01:25:49;;;;;;;0.10;0.10;;;4.00;99.90;;;;;;5146679;28;20032;-82
2021/12/04 01:28:15;;;;;;;0.10;0.10;;;4.60;99.90;;;;;;5112278;28;20036;-82
2021/12/04 01:30:42;;;;;;;0.10;0.10;;;4.00;99.90;;;;;;5146247;28;20051;-81
2021/12/04 01:33:09;;;;;;;0.10;0.10;;;4.00;99.90;;;;;;5128545;28;20083;-82
2021/12/04 01:35:35;;;;;;;0.10;0.10;;;4.00;99.90;;;;;;5145863;28;20040;-82
2021/12/04 01:38:02;;;;;;;0.10;0.10;;;4.50;99.90;;;;;;5145450;28;20040;-81
2021/12/04 01:40:29;;;;;;;0.20;0.20;;;4.00;99.90;;;;;;5146249;28;20040;-82
2021/12/04 01:42:56;;;;;;;0.10;0.10;;;4.00;99.90;;;;;;5111719;28;20747;-82
2021/12/04 01:45:23;;;;;;;5.07;0.45;;;4.40;99.90;;;;;;5112239;28;20047;-82
2021/12/04 01:47:49;;;;;;;0.20;0.20;;;4.00;99.90;;;;;;5128864;28;20040;-83
2021/12/04 01:50:16;;;;;;;0.10;0.10;;;4.10;99.90;;;;;;5111813;28;20072;-82
2021/12/04 01:52:43;;;;;;;0.10;0.10;;;4.70;99.90;;;;;;5112105;28;20035;-81
2021/12/04 01:55:09;;;;;;;0.10;0.10;;;4.00;99.90;;;;;;5145695;28;20093;-82
2021/12/04 01:57:37;;;;;;;0.10;0.10;;;4.10;99.90;;;;;;5145758;28;20040;-81
2021/12/04 02:00:06;;;;;;;0.10;0.10;;;4.00;99.90;;;;;;5145222;28;20032;-81
2021/12/04 02:02:33;;;;;;;0.10;0.10;;;4.00;99.90;;;;;;5145365;28;20097;-83
2021/12/04 02:04:59;;;;;;;0.10;0.10;;;4.00;99.90;;;;;;5128433;28;20036;-82
2021/12/04 02:07:26;;;;;;;0.10;0.10;;;4.00;99.90;;;;;;5145481;28;20047;-82
2021/12/04 02:09:53;;;;;;;2.28;0.45;;;4.70;99.90;;;;;;5145652;28;20177;-81
2021/12/04 02:12:19;;;;;;;0.10;0.10;;;4.00;99.90;;;;;;5128056;28;20036;-83
2021/12/04 02:14:46;;;;;;;0.10;0.10;;;4.00;99.90;;;;;;5145661;28;20044;-82
2021/12/04 02:17:13;;;;;;;0.13;0.13;;;4.50;99.90;;;;;;5145105;28;20048;-82
2021/12/04 02:19:40;;;;;;;0.10;0.10;;;4.10;99.90;;;;;;5145598;28;20036;-83
2021/12/04 02:22:07;;;;;;;0.10;0.10;;;4.00;99.90;;;;;;5145180;28;20048;-81
2021/12/04 02:24:34;;;;;;;0.13;0.13;;;4.00;99.90;;;;;;5111206;28;20127;-82
2021/12/04 02:27:00;;;;;;;0.10;0.10;;;4.00;99.90;;;;;;5127903;28;20043;-82
2021/12/04 02:29:27;;;;;;;0.13;0.13;;;4.00;99.90;;;;;;5145287;28;20039;-82
2021/12/04 02:31:57;;;;;;;0.10;0.10;;;4.00;99.90;;;;;;5145277;28;20036;-82
2021/12/04 02:34:28;;;;;;;0.10;0.10;;;4.00;99.90;;;;;;5144328;28;20039;-81
2021/12/04 02:36:56;;;;;;;0.10;0.10;;;4.10;99.90;;;;;;5145163;28;20043;-81
2021/12/04 02:39:33;;;;;;;0.10;0.10;;;4.70;99.90;;;;;;5144752;28;20085;-81
2021/12/04 02:42:00;;;;;;;0.20;0.20;;;4.00;99.90;;;;;;5127667;28;20546;-81
2021/12/04 02:44:41;;;;;;;0.10;0.10;;;4.40;99.90;;;;;;5143784;28;20040;-81
2021/12/04 02:47:08;;;;;;;0.10;0.10;;;4.10;99.90;;;;;;5144300;28;20504;-82
2021/12/04 02:49:35;;;;;;;0.15;0.15;;;4.30;99.90;;;;;;5127719;28;20036;-82
2021/12/04 02:52:07;;;;;;;0.10;0.10;;;4.60;99.90;;;;;;5144245;28;20044;-82
2021/12/04 02:54:35;;;;;;;0.10;0.10;;;4.00;99.90;;;;;;5144351;28;20443;-81
2021/12/04 02:57:04;;;;;;;0.10;0.10;;;4.60;99.90;;;;;;5144163;28;20075;-82
2021/12/04 02:59:33;;;;;;;0.10;0.10;;;4.00;99.90;;;;;;5144051;28;20097;-82
2021/12/04 03:01:59;;;;;;;0.10;0.10;;;4.20;99.90;;;;;;5144128;28;20181;-82
2021/12/04 03:04:28;;;;;;;0.20;0.20;;;4.70;99.90;;;;;;5143652;28;20778;-82
2021/12/04 03:06:55;;;;;;;0.10;0.10;;;4.40;99.90;;;;;;5127683;28;20040;-81
2021/12/04 03:09:21;;;;;;;0.10;0.10;;;4.00;99.90;;;;;;5127213;28;20392;-83
2021/12/04 03:11:48;;;;;;;0.10;0.10;;;4.00;99.90;;;;;;5127347;28;20489;-81
2021/12/04 03:14:17;;;;;;;0.10;0.10;;;4.20;99.90;;;;;;5110254;28;20046;-82
2021/12/04 03:16:44;;;;;;;0.10;0.10;;;3.90;99.90;;;;;;5144518;28;20047;-81
2021/12/04 03:19:10;;;;;;;0.10;0.10;;;4.00;99.90;;;;;;5143755;28;20697;-82
2021/12/04 03:21:39;;;;;;;0.10;0.10;;;3.90;99.90;;;;;;5127003;28;20066;-81
2021/12/04 03:24:12;;;;;;;0.10;0.10;;;4.70;99.90;;;;;;5127111;28;20119;-82
2021/12/04 03:26:39;;;;;;;0.10;0.10;;;4.30;99.90;;;;;;5143554;28;20502;-81
2021/12/04 03:29:13;;;;;;;0.10;0.10;;;4.00;99.90;;;;;;5143241;28;20543;-81
2021/12/04 03:42:23;;;;;;;0.13;0.13;;;3.90;99.90;;;;;;5126114;28;20572;-82
2021/12/04 03:44:50;;;;;;;0.10;0.10;;;3.90;99.90;;;;;;5126669;28;20118;-82
2021/12/04 03:47:19;;;;;;;0.10;0.10;;;4.00;99.90;;;;;;5143376;28;20040;-84
2021/12/04 03:49:47;;;;;;;0.10;0.10;;;3.90;99.90;;;;;;5143421;28;20036;-81
2021/12/04 03:52:15;;;;;;;0.10;0.10;;;3.90;99.90;;;;;;5126230;28;20040;-82
2021/12/04 03:54:43;;;;;;;0.10;0.10;;;3.90;99.90;;;;;;5126779;28;20044;-81
2021/12/04 03:57:12;;;;;;;0.10;0.10;;;4.00;99.90;;;;;;5142904;28;20139;-82
2021/12/04 03:59:41;;;;;;;0.20;0.20;;;3.90;99.90;;;;;;5126292;28;20040;-81
2021/12/04 04:02:10;;;;;;;0.10;0.10;;;3.90;99.90;;;;;;5126007;28;20052;-83
2021/12/04 04:04:37;;;;;;;0.20;0.20;;;3.90;99.90;;;;;;5109420;28;20043;-83
2021/12/04 04:07:05;;;;;;;0.10;0.10;;;4.20;99.90;;;;;;5143287;28;20084;-82
2021/12/04 04:09:33;;;;;;;0.10;0.10;;;3.90;99.90;;;;;;5143402;28;20028;-82
2021/12/04 04:12:00;;;;;;;0.10;0.10;;;4.00;99.90;;;;;;5143397;28;20044;-81
2021/12/04 04:14:27;;;;;;;0.10;0.10;;;3.90;99.90;;;;;;5125880;28;20044;-81
2021/12/04 04:16:56;;;;;;;0.10;0.10;;;3.90;99.90;;;;;;5143039;28;20036;-82
2021/12/04 04:19:24;;;;;;;0.15;0.15;;;4.10;99.90;;;;;;5143116;28;20118;-81
2021/12/04 04:21:58;;;;;;;0.10;0.10;;;3.80;99.90;;;;;;5143186;28;20385;-82
2021/12/04 04:24:26;;;;;;;0.17;0.17;;;3.90;99.90;;;;;;5126430;28;20046;-82
2021/12/04 04:26:54;;;;;;;0.10;0.10;;;3.40;99.90;;;;;;5126508;28;20123;-82
2021/12/04 04:29:21;;;;;;;0.10;0.10;;;4.10;99.90;;;;;;5125724;28;20508;-81
2021/12/04 04:31:49;;;;;;;0.10;0.10;;;4.20;99.90;;;;;;5142853;28;20036;-81
2021/12/04 04:34:33;;;;;;;0.10;0.10;;;4.60;99.90;;;;;;5142742;28;20035;-81
2021/12/04 04:37:12;;;;;;;0.10;0.10;;;4.10;99.90;;;;;;5143718;28;20051;-82
2021/12/04 05:01:59;;;;;;;0.20;0.20;;;3.90;99.90;;;;;;5159797;28;20131;-81
2021/12/04 05:13:00;;;;;;;0.10;0.10;;;3.80;99.90;;;;;;5163539;27;20476;-82
2021/12/04 05:20:52;;;;;;;0.10;0.10;;;3.90;99.90;;;;;;5163521;27;20047;-81
2021/12/04 05:23:20;;;;;;;0.10;0.10;;;3.90;99.90;;;;;;5146399;28;20036;-82
2021/12/04 05:25:46;;;;;;;0.13;0.13;;;4.20;99.90;;;;;;5129001;28;20691;-81
2021/12/04 05:28:14;;;;;;;0.10;0.10;;;3.90;99.90;;;;;;5146304;28;20050;-82
2021/12/04 05:30:40;;;;;;;0.10;0.10;;;3.80;99.90;;;;;;5129139;28;20043;-81
2021/12/04 05:33:07;;;;;;;0.10;0.10;;;3.90;99.90;;;;;;5146042;28;20127;-82
2021/12/04 05:35:34;;;;;;;0.10;0.10;;;3.90;99.90;;;;;;5145702;28;20044;-83
2021/12/04 05:38:01;;;;;;;0.10;0.10;;;3.80;99.90;;;;;;5145841;28;20044;-81
2021/12/04 05:40:28;;;;;;;0.10;0.10;;;4.30;99.90;;;;;;5145532;28;20488;-82
2021/12/04 05:43:01;;;;;;;0.10;0.10;;;3.80;99.90;;;;;;5145831;28;20058;-82
2021/12/04 05:45:32;;;;;;;0.10;0.10;;;4.20;99.90;;;;;;5128828;28;20036;-82
2021/12/04 05:53:39;;;;;;;0.10;0.10;;;3.90;99.90;;;;;;5162720;27;20047;-83
2021/12/04 05:56:06;;;;;;;0.10;0.10;;;3.80;99.90;;;;;;5145922;28;20074;-83
2021/12/04 05:58:33;;;;;;;0.10;0.10;;;3.90;99.90;;;;;;5145385;28;20086;-81
2021/12/04 06:01:04;;;;;;;0.10;0.10;;;4.60;99.90;;;;;;5145583;28;20056;-82
2021/12/04 06:03:31;;;;;;;0.10;0.10;;;3.80;99.90;;;;;;5145854;28;20046;-82
2021/12/04 06:05:58;;;;;;;0.17;0.17;;;3.80;99.90;;;;;;5128959;28;20036;-82
2021/12/04 06:08:24;;;;;;;0.10;0.10;;;3.80;99.90;;;;;;5128493;28;20036;-81
2021/12/04 06:10:52;;;;;;;0.10;0.10;;;3.80;99.90;;;;;;5145868;28;20047;-82
2021/12/04 06:13:19;;;;;;;0.10;0.10;;;3.80;99.90;;;;;;5145612;28;20036;-83
2021/12/04 06:15:46;;;;;;;0.20;0.20;;;3.80;99.90;;;;;;5128441;28;20044;-82
2021/12/04 06:18:15;;;;;;;0.10;0.10;;;4.50;99.90;;;;;;5145609;28;20135;-82
2021/12/04 06:23:30;;;;;;;0.10;0.10;;;3.80;99.90;;;;;;5127474;28;20562;-81
2021/12/04 06:25:56;;;;;;;0.10;0.10;;;3.80;99.90;;;;;;5145076;28;20028;-82
2021/12/04 06:28:23;;;;;;;0.10;0.10;;;3.80;99.90;;;;;;5145823;28;20044;-83
2021/12/04 06:30:52;;;;;;;0.10;0.10;;;3.80;99.90;;;;;;5144984;28;20040;-81
2021/12/04 06:33:19;;;;;;;0.10;0.10;;;3.80;99.90;;;;;;5127915;28;20040;-81
2021/12/04 06:35:46;;;;;;;0.10;0.10;;;4.20;99.90;;;;;;5148615;28;20051;-81
2021/12/04 06:38:16;;;;;;;0.10;0.10;;;3.80;99.90;;;;;;5131411;28;20504;-81
2021/12/04 06:40:44;;;;;;;0.10;0.10;;;3.80;99.90;;;;;;5165092;27;20121;-81
2021/12/04 06:43:11;;;;;;;0.10;0.10;;;4.40;99.90;;;;;;5165793;27;20038;-82
2021/12/04 06:45:41;;;;;;;0.17;0.17;;;4.50;99.90;;;;;;5165517;27;20043;-81
2021/12/04 06:48:20;;;;;;;0.20;0.20;;;3.80;99.90;;;;;;5148080;28;20039;-82
2021/12/04 06:50:53;;;;;;;0.13;0.13;;;3.80;99.90;;;;;;5117240;28;20096;-81
2021/12/04 06:55:52;;;;;;;0.10;0.10;;;3.90;99.90;;;;;;5115082;28;20048;-82
2021/12/04 06:58:20;;;;;;;0.10;0.10;;;3.80;99.90;;;;;;5148794;27;20090;-82
2021/12/04 07:00:48;;;;;;;0.10;0.10;;;3.80;99.90;;;;;;5130521;28;20441;-82
2021/12/04 07:03:15;;;;;;;0.10;0.10;;;4.20;99.90;;;;;;5136217;28;20048;-82
2021/12/04 07:05:42;;;;;;;0.35;0.35;;;3.80;99.90;;;;;;5127068;28;20040;-81
2021/12/04 07:08:09;;;;;;;0.10;0.10;;;3.80;99.90;;;;;;5127268;28;20036;-82
2021/12/04 07:10:36;;;;;;;0.10;0.10;;;3.80;99.90;;;;;;5143987;28;20135;-82
2021/12/04 07:13:04;;;;;;;0.10;0.10;;;3.80;99.90;;;;;;5130219;28;20415;-81
2021/12/04 07:15:32;;;;;;;0.10;0.10;;;4.20;99.90;;;;;;5131347;28;20047;-81
2021/12/04 07:18:00;;;;;;;0.10;0.10;;;3.80;99.90;;;;;;5147600;28;20035;-81
2021/12/04 07:20:28;;;;;;;0.10;0.10;;;3.80;99.90;;;;;;5130740;28;20065;-82
2021/12/04 07:22:55;;;;;;;0.13;0.13;;;3.80;99.90;;;;;;5164128;27;20047;-81
2021/12/04 07:25:22;;;;;;;0.10;0.10;;;4.20;99.90;;;;;;5147507;28;20061;-82
2021/12/04 07:27:50;;;;;;;0.10;0.10;;;3.80;99.90;;;;;;5147800;28;20040;-81
2021/12/04 07:30:19;;;;;;;0.10;0.10;;;3.80;99.90;;;;;;5129274;28;20046;-81
2021/12/04 07:32:46;;;;;;;0.10;0.10;;;3.80;99.90;;;;;;5129640;28;20444;-80
2021/12/04 07:35:14;;;;;;;0.10;0.10;;;3.90;99.90;;;;;;5130462;28;20046;-83
2021/12/04 07:37:41;;;;;;;0.10;0.10;;;3.90;99.90;;;;;;5147081;27;20067;-84
2021/12/04 07:40:09;;;;;;;0.10;0.10;;;3.80;99.90;;;;;;5129608;28;20069;-83
2021/12/04 07:42:36;;;;;;;0.10;0.10;;;3.80;99.90;;;;;;5112798;28;20045;-81
2021/12/04 07:45:04;;;;;;;0.10;0.10;;;3.80;99.90;;;;;;5113419;28;20119;-83
2021/12/04 07:47:31;;;;;;;0.10;0.10;;;3.80;99.90;;;;;;5126400;28;20044;-81
2021/12/04 07:49:57;;;;;;;0.10;0.10;;;3.80;99.90;;;;;;5124825;28;20027;-81
2021/12/04 07:52:24;;;;;;;0.10;0.10;;;3.80;99.90;;;;;;5126492;28;20028;-81
2021/12/04 07:54:51;;;;;;;0.10;0.10;;;4.00;99.90;;;;;;5130175;28;20032;-82
2021/12/04 07:57:18;;;;;;;0.10;0.10;;;3.90;99.90;;;;;;5096718;28;20384;-81
2021/12/04 07:59:45;;;;;;;0.10;0.10;;;3.80;99.90;;;;;;5146569;28;20036;-83
2021/12/04 08:02:12;;;;;;;0.13;0.13;;;4.00;99.90;;;;;;5112961;28;20461;-83
2021/12/04 08:04:39;;;;;;;0.10;0.10;;;4.10;99.90;;;;;;5131548;28;20071;-81
2021/12/04 08:07:06;;;;;;;0.10;0.10;;;3.90;99.90;;;;;;5114673;28;20093;-82
2021/12/04 08:09:33;;;;;;;0.10;0.10;;;3.90;99.90;;;;;;5096407;28;20035;-82
2021/12/04 08:11:59;;;;;;;0.10;0.10;;;4.00;99.90;;;;;;5129636;28;20039;-82
2021/12/04 08:14:26;;;;;;;0.10;0.10;;;4.10;99.90;;;;;;5113172;28;20047;-82
2021/12/04 08:16:53;;;;;;;0.10;0.10;;;3.90;99.90;;;;;;5146809;28;20039;-82
2021/12/04 08:19:20;;;;;;;0.10;0.10;;;3.90;99.90;;;;;;5113189;28;20035;-82
2021/12/04 08:21:46;;;;;;;0.13;0.13;;;3.90;99.90;;;;;;5112216;28;20553;-81
2021/12/04 08:24:13;;;;;;;0.10;0.10;;;4.20;99.90;;;;;;5129490;28;20035;-82
2021/12/04 08:26:41;;;;;;;0.10;0.10;;;4.00;99.90;;;;;;5146669;27;20038;-82
2021/12/04 08:29:08;;;;;;;0.10;0.10;;;3.90;99.90;;;;;;5147520;27;20480;-82
2021/12/04 08:31:36;;;;;;;0.10;0.10;;;3.90;99.90;;;;;;5113350;28;20054;-82
2021/12/04 08:34:03;;;;;;;0.10;0.10;;;4.80;99.90;;;;;;5163854;27;20077;-82
2021/12/04 08:36:32;;;;;;;0.10;0.10;;;3.90;99.90;;;;;;5146820;28;20047;-85
2021/12/04 08:39:01;;;;;;;0.10;0.10;;;4.50;99.90;;;;;;5160561;27;20036;-83
2021/12/04 08:41:27;;;;;;;0.10;0.10;;;4.50;99.90;;;;;;5109657;28;20048;-83
2021/12/04 08:43:55;;;;;;;0.10;0.10;;;4.00;99.90;;;;;;5145422;28;20032;-84
2021/12/04 08:46:23;;;;;;;0.10;0.10;;;4.00;99.90;;;;;;5144422;27;20027;-84
2021/12/04 08:48:52;;;;;;;0.20;0.20;;;4.40;99.90;;;;;;5150504;28;20043;-83
2021/12/04 08:51:21;;;;;;;0.10;0.10;;;4.10;99.90;;;;;;5167449;27;20526;-84
2021/12/04 08:53:52;;;;;;;0.10;0.10;;;4.10;99.90;;;;;;5150130;28;20119;-83
2021/12/04 08:56:20;;;;;;;0.10;0.10;;;4.10;99.90;;;;;;5150368;28;20453;-83
2021/12/04 08:58:47;;;;;;;0.10;0.10;;;4.10;99.90;;;;;;5149793;28;20488;-82
2021/12/04 09:01:24;;;;;;;0.30;0.30;;;4.20;99.90;;;;;;5150002;28;20051;-83
2021/12/04 09:04:08;;;;;;;0.10;0.10;;;4.10;99.90;;;;;;5149655;28;20054;-81
2021/12/04 09:06:36;;;;;;;0.10;0.10;;;4.20;99.90;;;;;;5150371;28;20092;-83
2021/12/04 09:09:05;;;;;;;0.10;0.10;;;4.10;99.90;;;;;;5161254;27;20488;-83
2021/12/04 09:11:39;;;;;;;0.10;0.10;;;4.20;99.90;;;;;;5116164;28;20039;-84
2021/12/04 09:14:06;;;;;;;0.10;0.10;;;4.20;99.90;;;;;;5164743;27;20804;-84
2021/12/04 09:16:33;;;;;;;0.10;0.10;;;4.20;99.90;;;;;;5167168;27;20213;-82
2021/12/04 09:19:00;;;;;;;0.10;0.10;;;4.20;99.90;;;;;;5132681;28;20050;-84
2021/12/04 09:21:28;;;;;;;0.10;0.10;;;4.20;99.90;;;;;;5149826;28;20071;-82
2021/12/04 09:24:06;;;;;;;0.10;0.10;;;4.20;99.90;;;;;;5166752;27;20123;-83
2021/12/04 09:26:48;;;;;;;0.10;0.10;;;4.30;99.90;;;;;;5184462;27;20096;-83
2021/12/04 09:32:25;;;;;;;0.10;0.10;;;4.30;99.90;;;;;;5169028;27;20180;-82
2021/12/04 09:59:22;;;;;;;0.10;0.10;;;4.40;99.90;;;;;;5169379;27;20392;-83
2021/12/04 10:02:14;;;;;;;0.10;0.10;;;4.50;99.90;;;;;;5132643;28;20062;-82
2021/12/04 10:19:14;;;;;;;0.10;0.10;;;4.60;99.90;;;;;;5162141;27;20054;-82
2021/12/04 10:34:58;;;;;;;0.10;0.10;;;4.50;99.90;;;;;;5148327;28;20053;-82
2021/12/04 10:37:27;;;;;;;0.10;0.10;;;4.60;99.90;;;;;;5164999;27;20036;-84
2021/12/04 10:40:00;;;;;;;0.10;0.10;;;4.90;99.90;;;;;;5148272;28;20035;-83
2021/12/04 10:42:38;;;;;;;0.10;0.10;;;4.70;99.90;;;;;;5148370;28;20108;-85
2021/12/04 10:45:05;;;;;;;0.28;0.28;;;5.10;99.90;;;;;;5115588;28;20050;-83
2021/12/04 10:47:32;;;;;;;0.10;0.10;;;4.60;99.90;;;;;;5115124;28;20038;-82
2021/12/04 10:50:23;;;;;;;0.10;0.10;;;4.60;99.90;;;;;;5114867;28;20040;-84
2021/12/04 10:53:03;;;;;;;0.10;0.10;;;4.50;99.90;;;;;;5148318;28;20043;-82
2021/12/04 11:01:21;;;;;;;0.10;0.10;;;4.60;99.90;;;;;;5148278;28;20082;-85
2021/12/04 11:38:40;;;;;;;0.10;0.10;;;4.50;99.90;;;;;;5109005;28;20039;-85
2021/12/04 11:41:29;;;;;;;0.10;0.10;;;5.50;99.90;;;;;;5132474;28;20123;-82
2021/12/04 11:44:25;;;;;;;0.10;0.10;;;4.50;99.90;;;;;;5129436;28;20048;-85
2021/12/04 11:46:48;;;;;;;0.10;0.10;;;4.50;99.90;;;;;;5146888;28;20408;-85
2021/12/04 11:49:27;;;;;;;0.10;0.10;;;4.80;99.90;;;;;;5110792;28;20081;-86
2021/12/04 11:51:58;;;;;;;0.10;0.10;;;4.50;99.90;;;;;;5126783;28;20130;-82
2021/12/04 11:54:29;;;;;;;0.15;0.15;;;4.60;99.90;;;;;;5132477;28;20032;-82
2021/12/04 11:57:09;;;;;;;0.10;0.10;;;4.60;99.90;;;;;;5131290;28;20156;-86
2021/12/04 11:59:38;;;;;;;0.10;0.10;;;4.60;99.90;;;;;;5147228;28;20104;-85
2021/12/04 12:02:08;;;;;;;0.10;0.10;;;4.60;99.90;;;;;;5113404;28;20055;-81
2021/12/04 12:04:41;;;;;;;0.10;0.10;;;4.60;99.90;;;;;;5130844;28;20104;-86
2021/12/04 12:07:13;;;;;;;0.10;0.10;;;4.60;99.90;;;;;;5129965;28;20403;-86
2021/12/04 12:09:40;;;;;;;0.10;0.10;;;4.60;99.90;;;;;;5147103;28;20118;-85
2021/12/04 12:12:12;;;;;;;0.55;0.40;;;4.60;99.90;;;;;;5113335;28;20131;-85
2021/12/04 12:14:49;;;;;;;0.00;0.00;;;4.60;99.90;;;;;;5114105;28;20036;-82
2021/12/04 12:17:32;;;;;;;0.10;0.10;;;4.60;99.90;;;;;;5149738;28;20043;-85
2021/12/04 12:19:59;;;;;;;0.10;0.10;;;4.60;99.90;;;;;;5131321;28;20047;-85
2021/12/04 12:23:11;;;;;;;0.10;0.10;;;4.60;99.90;;;;;;5147840;28;20040;-85
2021/12/04 12:34:08;;;;;;;0.10;0.10;;;4.60;99.90;;;;;;5164864;27;20040;-82
2021/12/04 12:36:35;;;;;;;0.10;0.10;;;4.60;99.90;;;;;;5164645;27;20080;-82
2021/12/04 12:39:13;;;;;;;0.10;0.10;;;4.60;99.90;;;;;;5130238;28;20067;-84
2021/12/04 12:41:41;;;;;;;0.10;0.10;;;4.60;99.90;;;;;;5147284;28;20063;-85
2021/12/04 12:44:24;;;;;;;0.10;0.10;;;4.60;99.90;;;;;;5130374;28;20051;-85
2021/12/04 12:46:55;;;;;;;0.20;0.20;;;4.70;99.90;;;;;;5113702;28;20036;-85
2021/12/04 12:49:36;;;;;;;0.10;0.10;;;4.70;99.90;;;;;;5164741;27;20040;-85
2021/12/04 12:52:12;;;;;;;0.10;0.10;;;4.70;99.90;;;;;;5150928;28;20052;-82
2021/12/04 12:54:59;;;;;;;0.10;0.10;;;4.70;99.90;;;;;;5150770;28;20048;-81
2021/12/04 12:57:28;;;;;;;0.13;0.13;;;4.70;99.90;;;;;;5184794;27;20404;-81
2021/12/04 13:14:21;;;;;;;0.10;0.10;;;4.60;99.90;;;;;;5147005;28;20044;-85
2021/12/04 13:17:10;;;;;;;0.10;0.10;;;4.60;99.90;;;;;;5130503;28;20045;-86
2021/12/04 13:19:40;;;;;;;0.10;0.10;;;4.60;99.90;;;;;;5105511;28;20087;-85
2021/12/04 13:22:19;;;;;;;0.10;0.10;;;4.50;99.90;;;;;;5131335;28;20071;-82
2021/12/04 13:24:49;;;;;;;0.10;0.10;;;4.50;99.90;;;;;;5130804;28;20068;-85
2021/12/04 13:29:47;;;;;;;0.10;0.10;;;4.50;99.90;;;;;;5145554;28;20491;-81
2021/12/04 13:32:16;;;;;;;0.10;0.10;;;4.50;99.90;;;;;;5132086;28;20047;-85
2021/12/04 13:34:43;;;;;;;0.10;0.10;;;4.60;99.90;;;;;;5169261;27;20388;-85
2021/12/04 13:37:12;;;;;;;0.10;0.10;;;4.50;99.90;;;;;;5117808;28;20497;-82
2021/12/04 13:39:41;;;;;;;0.10;0.10;;;4.50;99.90;;;;;;5116675;28;20044;-83
2021/12/04 13:42:08;;;;;;;0.20;0.20;;;4.50;99.90;;;;;;5133273;28;20036;-80
2021/12/04 13:44:36;;;;;;;0.10;0.10;;;4.60;99.90;;;;;;5117507;28;20071;-85
2021/12/04 13:47:06;;;;;;;0.10;0.10;;;4.50;99.90;;;;;;5133573;28;20035;-85
2021/12/04 13:50:00;;;;;;;0.10;0.10;;;4.50;99.90;;;;;;5132988;28;20122;-85
2021/12/04 13:52:31;;;;;;;0.10;0.10;;;4.60;99.90;;;;;;5133354;28;20573;-85
2021/12/04 13:55:08;;;;;;;0.10;0.10;;;4.60;99.90;;;;;;5151477;28;20050;-84
2021/12/04 13:57:40;;;;;;;0.63;0.30;;;4.60;99.90;;;;;;5133852;28;20044;-85
2021/12/04 14:00:10;;;;;;;0.10;0.10;;;4.50;99.90;;;;;;5117287;28;20516;-85
2021/12/04 14:02:37;;;;;;;0.10;0.10;;;4.60;99.90;;;;;;5132241;28;20062;-84
2021/12/04 14:05:15;;;;;;;0.10;0.10;;;4.60;99.90;;;;;;5116066;28;20078;-85
2021/12/04 14:07:54;;;;;;;0.10;0.10;;;4.60;99.90;;;;;;5134046;28;20085;-85
2021/12/04 14:10:26;;;;;;;0.10;0.10;;;4.60;99.90;;;;;;5133373;28;20035;-86
2021/12/04 14:12:54;;;;;;;0.10;0.10;;;4.60;99.90;;;;;;5132413;28;20039;-84
2021/12/04 14:15:23;;;;;;;0.10;0.10;;;4.60;99.90;;;;;;5116865;28;20031;-85
2021/12/04 14:17:56;;;;;;;0.10;0.10;;;4.60;99.90;;;;;;5149704;28;20102;-85
2021/12/04 14:20:25;;;;;;;0.10;0.10;;;4.60;99.90;;;;;;5132960;28;20424;-85
2021/12/04 14:22:53;;;;;;;0.10;0.10;;;4.60;99.90;;;;;;5116287;28;20028;-85
2021/12/04 14:25:22;;;;;;;0.10;0.10;;;4.60;99.90;;;;;;5116622;28;20046;-84
2021/12/04 14:27:51;;;;;;;0.10;0.10;;;4.60;99.90;;;;;;5132379;28;20042;-85
2021/12/04 14:30:25;;;;;;;0.10;0.10;;;5.40;99.90;;;;;;5132354;28;20084;-84
2021/12/04 14:32:56;;;;;;;0.10;0.10;;;4.60;99.90;;;;;;5150472;28;20040;-85
2021/12/04 14:35:28;;;;;;;0.10;0.10;;;4.60;99.90;;;;;;5116033;28;20089;-85
2021/12/04 14:37:58;;;;;;;0.10;0.10;;;5.50;99.90;;;;;;5132872;28;20449;-85
2021/12/04 14:40:31;;;;;;;0.10;0.10;;;4.60;99.90;;;;;;5115383;28;20062;-86
2021/12/04 14:42:58;;;;;;;0.10;0.10;;;4.70;99.90;;;;;;5149226;28;20051;-85
2021/12/04 14:45:29;;;;;;;0.10;0.10;;;4.60;99.90;;;;;;5132750;28;20118;-85
2021/12/04 14:48:07;;;;;;;0.10;0.10;;;4.70;99.90;;;;;;5131601;28;20039;-84
2021/12/04 14:50:39;;;;;;;0.10;0.10;;;5.10;99.90;;;;;;5148499;28;20047;-84
2021/12/04 14:53:09;;;;;;;0.10;0.10;;;4.70;99.90;;;;;;5131995;28;20674;-85
2021/12/04 14:55:41;;;;;;;0.10;0.10;;;4.70;99.90;;;;;;5148133;28;20097;-85
2021/12/04 14:58:15;;;;;;;0.10;0.10;;;4.70;99.90;;;;;;5131840;28;20055;-85
2021/12/04 15:00:54;;;;;;;0.10;0.10;;;4.70;99.90;;;;;;5130718;28;20131;-84
2021/12/04 15:03:32;;;;;;;0.10;0.10;;;4.70;99.90;;;;;;5131209;28;20079;-84
2021/12/04 15:06:03;;;;;;;0.20;0.20;;;4.70;99.90;;;;;;5148519;28;20050;-85
2021/12/04 15:08:38;;;;;;;0.10;0.10;;;5.50;99.90;;;;;;5114590;28;20066;-84
2021/12/04 15:11:07;;;;;;;;;;;4.70;99.90;;;;;;5131442;28;20035;-84
2021/12/04 15:13:52;;;;;;;0.10;0.10;;;4.70;99.90;;;;;;5148724;28;19920;-84
2021/12/04 15:16:33;;;;;;;0.10;0.10;;;4.70;99.90;;;;;;5148675;28;20042;-85
2021/12/04 15:19:21;;;;;;;0.10;0.10;;;4.70;99.90;;;;;;5131861;28;20049;-84
2021/12/04 15:21:57;;;;;;;0.20;0.20;;;4.60;99.90;;;;;;5131411;28;20054;-85
2021/12/04 15:24:38;;;;;;;0.10;0.10;;;4.60;99.90;;;;;;5131611;28;20055;-84
2021/12/04 15:27:18;;;;;;;0.10;0.10;;;4.60;99.90;;;;;;5132450;28;20031;-85
2021/12/04 15:29:47;;;;;;;0.10;0.10;;;4.60;99.90;;;;;;5131915;28;20438;-85
2021/12/04 15:32:20;;;;;;;0.10;0.10;;;4.60;99.90;;;;;;5131150;28;20039;-84
2021/12/04 15:34:56;;;;;;;0.10;0.10;;;4.60;99.90;;;;;;5130879;28;20075;-85
2021/12/04 15:37:40;;;;;;;0.15;0.15;;;5.00;99.90;;;;;;5148046;28;20057;-84
2021/12/04 15:40:22;;;;;;;0.10;0.10;;;4.60;99.90;;;;;;5130460;28;20729;-84
2021/12/04 15:45:57;;;;;;;0.10;0.10;;;4.90;99.90;;;;;;5118948;28;20051;-84
2021/12/04 15:48:52;;;;;;;0.10;0.10;;;4.60;99.90;;;;;;5117141;28;20054;-84
2021/12/04 15:54:11;;;;;;;0.20;0.20;;;4.90;99.90;;;;;;5148011;28;20634;-83
2021/12/04 15:56:44;;;;;;;0.10;0.10;;;4.60;99.90;;;;;;5131685;28;20075;-84
2021/12/04 15:59:17;;;;;;;0.10;0.10;;;4.70;99.90;;;;;;5131879;28;20039;-83
2021/12/04 16:01:45;;;;;;;0.10;0.10;;;4.60;99.90;;;;;;5148412;28;20048;-84
2021/12/04 16:04:24;;;;;;;0.20;0.20;;;4.60;99.90;;;;;;5148136;28;20044;-85
2021/12/04 16:06:51;;;;;;;0.10;0.10;;;4.60;99.90;;;;;;5131431;28;20052;-85
2021/12/04 16:09:40;;;;;;;0.10;0.10;;;4.60;99.90;;;;;;5113530;28;20065;-85
2021/12/04 16:12:12;;;;;;;0.10;0.10;;;4.60;99.90;;;;;;5130684;28;20052;-85
2021/12/04 16:14:42;;;;;;;0.10;0.10;;;4.50;99.90;;;;;;5114062;28;20036;-84
2021/12/04 16:17:10;;;;;;;0.10;0.10;;;4.50;99.90;;;;;;5130287;28;20035;-81
2021/12/04 16:19:39;;;;;;;0.10;0.10;;;4.50;99.90;;;;;;5128830;28;20313;-81
2021/12/04 16:22:09;;;;;;;0.10;0.10;;;4.50;99.90;;;;;;5112980;28;20032;-82
2021/12/04 16:24:39;;;;;;;0.10;0.10;;;4.50;99.90;;;;;;5146844;28;20047;-83
2021/12/04 16:27:17;;;;;;;0.10;0.10;;;4.50;99.90;;;;;;5129762;28;20042;-84
2021/12/04 16:30:12;;;;;;;0.10;0.10;;;5.00;99.90;;;;;;5110710;28;20032;-82